Time;durP1;ratioP1;P1;durP2;ratioP2;P2;SDS_P1;SDS_P2;PMS_P1;PMS_P2;Temp;Humidity;BMP_temperature;BMP_pressure;BME280_temperature;BME280_humidity;BME280_pressure;Samples;Min_cycle;Max_cycle;Signal;HPM_P1;HPM_P2
2022/04/03 00:01:44;;;;;;;5.70;4.57;;;0.70;99.90;;;;;;5030187;28;20040;-80
2022/04/03 00:04:10;;;;;;;5.63;5.07;;;0.70;99.90;;;;;;5027685;28;20467;-80
2022/04/03 00:06:37;;;;;;;5.35;4.82;;;0.70;99.90;;;;;;5011825;28;20025;-81
2022/04/03 00:09:03;;;;;;;5.25;4.38;;;0.70;99.90;;;;;;5034651;28;20049;-78
2022/04/03 00:11:30;;;;;;;6.15;4.13;;;0.60;99.90;;;;;;5028800;28;20049;-79
2022/04/03 00:13:56;;;;;;;7.22;4.53;;;0.70;99.90;;;;;;4993542;28;20045;-80
2022/04/03 00:16:22;;;;;;;8.45;5.25;;;0.70;99.90;;;;;;5021069;28;20038;-81
2022/04/03 00:18:49;;;;;;;8.02;4.40;;;0.60;99.90;;;;;;5034565;28;20487;-81
2022/04/03 00:21:17;;;;;;;8.35;4.28;;;0.60;99.90;;;;;;5002815;28;20041;-81
2022/04/03 00:23:44;;;;;;;5.55;4.50;;;0.60;99.90;;;;;;5031559;28;20038;-80
2022/04/03 00:26:11;;;;;;;7.10;4.97;;;0.70;99.90;;;;;;5033573;28;20046;-81
2022/04/03 00:28:37;;;;;;;5.45;4.90;;;0.70;99.90;;;;;;5033538;28;20484;-81
2022/04/03 00:31:04;;;;;;;5.03;4.13;;;0.70;99.90;;;;;;5011891;28;20038;-80
2022/04/03 00:33:30;;;;;;;5.10;3.85;;;0.70;99.90;;;;;;5031006;28;20041;-81
2022/04/03 00:35:56;;;;;;;8.18;4.93;;;0.70;99.90;;;;;;5032864;28;20021;-81
2022/04/03 00:38:22;;;;;;;7.30;5.38;;;0.70;99.90;;;;;;5015564;28;20556;-81
2022/04/03 00:40:49;;;;;;;5.35;3.85;;;0.70;99.90;;;;;;5015004;28;20033;-81
2022/04/03 00:43:16;;;;;;;5.93;5.05;;;0.70;99.90;;;;;;5030001;28;20352;-82
2022/04/03 00:45:46;;;;;;;5.32;4.13;;;0.70;99.90;;;;;;4995000;28;20034;-80
2022/04/03 00:48:13;;;;;;;4.47;3.97;;;0.70;99.90;;;;;;5015010;28;20041;-81
2022/04/03 00:50:39;;;;;;;5.30;3.97;;;0.80;99.90;;;;;;5006742;28;20041;-81
2022/04/03 00:53:05;;;;;;;5.32;4.40;;;0.80;99.90;;;;;;5039365;28;20033;-80
2022/04/03 00:55:32;;;;;;;11.60;4.28;;;0.80;99.90;;;;;;5015215;28;20038;-81
2022/04/03 00:57:58;;;;;;;4.15;3.75;;;0.80;99.90;;;;;;5025969;28;20030;-81
2022/04/03 01:00:25;;;;;;;9.15;4.80;;;0.80;99.90;;;;;;5013312;28;20034;-81
2022/04/03 01:02:51;;;;;;;4.13;3.38;;;0.80;99.90;;;;;;5016223;28;20045;-80
2022/04/03 01:05:17;;;;;;;5.38;4.07;;;0.80;99.90;;;;;;5036764;28;20037;-80
2022/04/03 01:07:44;;;;;;;7.53;4.63;;;0.80;99.90;;;;;;5020427;28;20046;-85
2022/04/03 01:10:10;;;;;;;7.93;5.28;;;0.80;99.90;;;;;;5001046;28;20048;-84
2022/04/03 01:12:40;;;;;;;9.00;4.90;;;0.80;99.90;;;;;;4999612;28;20045;-84
2022/04/03 01:15:08;;;;;;;6.90;4.32;;;0.70;99.90;;;;;;5016218;28;20025;-84
2022/04/03 01:17:35;;;;;;;5.15;4.25;;;0.80;99.90;;;;;;5011385;28;20030;-83
2022/04/03 01:20:02;;;;;;;5.15;3.63;;;0.80;99.90;;;;;;5029844;28;20029;-84
2022/04/03 01:22:28;;;;;;;4.88;4.32;;;0.90;99.90;;;;;;5001755;28;20036;-83
2022/04/03 01:24:58;;;;;;;9.32;4.18;;;0.90;99.90;;;;;;5015218;28;20390;-84
2022/04/03 01:27:24;;;;;;;3.90;3.50;;;0.90;99.90;;;;;;5025040;28;20038;-83
2022/04/03 01:29:52;;;;;;;4.95;4.45;;;0.90;99.90;;;;;;4996978;28;20046;-79
2022/04/03 01:32:20;;;;;;;5.50;4.32;;;0.90;99.90;;;;;;5032775;28;20036;-79
2022/04/03 01:34:46;;;;;;;6.20;4.18;;;0.90;99.90;;;;;;5030349;28;20497;-79
2022/04/03 01:37:13;;;;;;;9.85;4.38;;;0.90;99.90;;;;;;5030770;28;20033;-85
2022/04/03 01:39:39;;;;;;;4.93;4.43;;;0.90;99.90;;;;;;5009446;28;20041;-80
2022/04/03 01:42:06;;;;;;;6.05;5.03;;;1.00;99.90;;;;;;5013002;28;20040;-79
2022/04/03 01:44:32;;;;;;;5.53;4.53;;;0.90;99.90;;;;;;5012384;28;20037;-80
2022/04/03 01:46:58;;;;;;;5.50;4.50;;;0.90;99.90;;;;;;5032586;28;20029;-80
2022/04/03 01:49:24;;;;;;;7.03;4.97;;;0.90;99.90;;;;;;5029606;28;20045;-79
2022/04/03 01:51:50;;;;;;;8.85;4.72;;;0.90;99.90;;;;;;5032093;28;20033;-79
2022/04/03 01:54:17;;;;;;;7.20;4.40;;;0.90;99.90;;;;;;4998041;28;20052;-79
2022/04/03 01:56:44;;;;;;;6.95;4.93;;;0.90;99.90;;;;;;5027428;28;20361;-79
2022/04/03 01:59:11;;;;;;;6.38;5.05;;;1.00;99.90;;;;;;5031707;28;20029;-80
2022/04/03 02:01:37;;;;;;;5.28;3.92;;;1.00;99.90;;;;;;5031431;28;20056;-79
2022/04/03 02:04:04;;;;;;;5.35;4.90;;;1.00;99.90;;;;;;5014583;28;20068;-78
2022/04/03 02:06:31;;;;;;;4.90;4.20;;;1.00;99.90;;;;;;5027084;28;20025;-78
2022/04/03 02:09:00;;;;;;;5.07;4.43;;;1.00;99.90;;;;;;5034780;28;20490;-79
2022/04/03 02:11:28;;;;;;;5.28;4.15;;;1.00;99.90;;;;;;5024507;28;20025;-83
2022/04/03 02:13:54;;;;;;;8.88;4.90;;;1.00;99.90;;;;;;5026254;28;20037;-84
2022/04/03 02:16:20;;;;;;;9.65;4.75;;;0.90;99.90;;;;;;5031357;28;20033;-83
2022/04/03 02:18:46;;;;;;;6.65;4.43;;;1.00;99.90;;;;;;5014754;28;20034;-83
2022/04/03 02:21:12;;;;;;;6.78;4.97;;;1.00;99.90;;;;;;5013528;28;20502;-83
2022/04/03 02:23:38;;;;;;;5.07;4.47;;;0.90;99.90;;;;;;5025834;28;20396;-82
2022/04/03 02:26:05;;;;;;;4.90;4.50;;;0.90;99.90;;;;;;5029792;28;20036;-82
2022/04/03 02:28:31;;;;;;;4.90;3.70;;;0.90;99.90;;;;;;5029550;28;20041;-80
2022/04/03 02:30:57;;;;;;;10.45;5.18;;;0.90;99.90;;;;;;5013875;28;20042;-79
2022/04/03 02:33:23;;;;;;;5.75;5.05;;;0.90;99.90;;;;;;5032204;28;20038;-81
2022/04/03 02:35:50;;;;;;;8.35;4.93;;;0.90;99.90;;;;;;4998193;28;20048;-80
2022/04/03 02:38:17;;;;;;;5.35;4.85;;;0.90;99.90;;;;;;5029219;28;20036;-81
2022/04/03 02:40:43;;;;;;;6.55;4.78;;;0.90;99.90;;;;;;5026841;28;20053;-80
2022/04/03 02:43:10;;;;;;;7.15;5.10;;;0.90;99.90;;;;;;5029294;28;20459;-80
2022/04/03 02:45:37;;;;;;;11.55;5.55;;;0.90;99.90;;;;;;5013454;28;20037;-80
2022/04/03 02:48:05;;;;;;;9.05;5.60;;;0.90;99.90;;;;;;5032539;28;20040;-80
2022/04/03 02:50:31;;;;;;;6.25;5.18;;;0.90;99.90;;;;;;5034797;28;20030;-81
2022/04/03 02:52:58;;;;;;;8.43;4.35;;;0.80;99.90;;;;;;5031879;28;20033;-78
2022/04/03 02:55:25;;;;;;;5.07;4.30;;;0.90;99.90;;;;;;5032616;28;20076;-79
2022/04/03 02:57:52;;;;;;;5.65;4.63;;;0.80;99.90;;;;;;5035617;28;20029;-80
2022/04/03 03:00:19;;;;;;;6.10;4.68;;;0.80;99.90;;;;;;5035100;28;20040;-81
2022/04/03 03:02:49;;;;;;;4.22;3.63;;;0.80;99.90;;;;;;5030300;28;20044;-82
2022/04/03 03:05:15;;;;;;;5.97;4.93;;;0.80;99.90;;;;;;5035842;28;20463;-83
2022/04/03 03:07:45;;;;;;;6.35;5.28;;;0.70;99.90;;;;;;5032175;28;20030;-81
2022/04/03 03:10:17;;;;;;;5.80;4.55;;;0.70;99.90;;;;;;5016641;28;20063;-81
2022/04/03 03:12:44;;;;;;;8.02;4.80;;;0.70;99.90;;;;;;5035693;28;20060;-81
2022/04/03 03:15:12;;;;;;;7.10;5.20;;;0.70;99.90;;;;;;5016186;28;20045;-81
2022/04/03 03:17:39;;;;;;;5.32;4.72;;;0.70;99.90;;;;;;5017452;28;20052;-79
2022/04/03 03:20:06;;;;;;;4.88;4.38;;;0.70;99.90;;;;;;5034095;28;20390;-80
2022/04/03 03:22:34;;;;;;;4.63;4.15;;;0.70;99.90;;;;;;5033092;28;20056;-79
2022/04/03 03:25:00;;;;;;;5.97;4.63;;;0.60;99.90;;;;;;5034480;28;20040;-79
2022/04/03 03:27:27;;;;;;;7.20;5.22;;;0.60;99.90;;;;;;5030014;28;20061;-80
2022/04/03 03:29:53;;;;;;;6.82;5.22;;;0.60;99.90;;;;;;5033978;28;20037;-81
2022/04/03 03:32:20;;;;;;;5.82;4.95;;;0.60;99.90;;;;;;5012943;28;20053;-80
2022/04/03 03:34:46;;;;;;;7.45;4.95;;;0.60;99.90;;;;;;5010030;28;20037;-82
2022/04/03 03:37:12;;;;;;;6.45;4.35;;;0.60;99.90;;;;;;5016554;28;20048;-81
2022/04/03 03:39:39;;;;;;;5.75;4.88;;;0.60;99.90;;;;;;5021123;28;20045;-80
2022/04/03 03:42:06;;;;;;;7.47;5.30;;;0.60;99.90;;;;;;5017574;28;20103;-80
2022/04/03 03:44:32;;;;;;;5.53;4.95;;;0.60;99.90;;;;;;5034708;28;20402;-79
2022/04/03 03:46:59;;;;;;;6.68;4.60;;;0.60;99.90;;;;;;5013146;28;20038;-80
2022/04/03 03:49:26;;;;;;;8.65;5.40;;;0.60;99.90;;;;;;5031663;28;20033;-80
2022/04/03 03:51:54;;;;;;;9.35;5.90;;;0.50;99.90;;;;;;5001323;28;20038;-80
2022/04/03 03:54:21;;;;;;;9.00;5.78;;;0.50;99.90;;;;;;5027626;28;20045;-80
2022/04/03 03:56:47;;;;;;;7.22;5.43;;;0.50;99.90;;;;;;5033330;28;20037;-81
2022/04/03 03:59:14;;;;;;;7.40;5.47;;;0.50;99.90;;;;;;5024241;28;20033;-80
2022/04/03 04:01:41;;;;;;;7.63;5.22;;;0.50;99.90;;;;;;5016320;28;20491;-80
2022/04/03 04:04:07;;;;;;;6.35;5.32;;;0.50;99.90;;;;;;5015617;28;20064;-80
2022/04/03 04:06:33;;;;;;;6.60;4.78;;;0.50;99.90;;;;;;5032421;28;20040;-81
2022/04/03 04:09:00;;;;;;;6.28;5.18;;;0.50;99.90;;;;;;5030464;28;20042;-81
2022/04/03 04:11:26;;;;;;;11.48;5.68;;;0.50;99.90;;;;;;5032036;28;20045;-82
2022/04/03 04:13:52;;;;;;;8.13;5.25;;;0.50;99.90;;;;;;5035222;28;20041;-81
2022/04/03 04:16:18;;;;;;;5.75;4.85;;;0.50;99.90;;;;;;5016062;28;20383;-81
2022/04/03 04:18:44;;;;;;;6.03;5.35;;;0.40;99.90;;;;;;5034662;28;20040;-81
2022/04/03 04:21:12;;;;;;;6.03;5.40;;;0.40;99.90;;;;;;5032102;28;20033;-80
2022/04/03 04:23:38;;;;;;;9.85;5.00;;;0.40;99.90;;;;;;5032085;28;20049;-79
2022/04/03 04:26:04;;;;;;;6.68;5.57;;;0.40;99.90;;;;;;5018545;28;20040;-79
2022/04/03 04:28:30;;;;;;;9.00;5.32;;;0.40;99.90;;;;;;5015866;28;20049;-80
2022/04/03 04:30:57;;;;;;;9.38;5.57;;;0.40;99.90;;;;;;5034363;28;20044;-80
2022/04/03 04:33:25;;;;;;;10.18;5.88;;;0.30;99.90;;;;;;5013167;28;20522;-81
2022/04/03 04:35:51;;;;;;;5.57;5.00;;;0.30;99.90;;;;;;5031952;28;20053;-81
2022/04/03 04:38:17;;;;;;;6.03;5.25;;;0.30;99.90;;;;;;5015576;28;20396;-83
2022/04/03 04:40:44;;;;;;;5.82;5.20;;;0.20;99.90;;;;;;5027885;28;20034;-80
2022/04/03 04:43:11;;;;;;;6.95;5.10;;;0.20;99.90;;;;;;5016876;28;20072;-80
2022/04/03 04:45:37;;;;;;;6.25;5.65;;;0.10;99.90;;;;;;5039059;28;20596;-79
2022/04/03 04:48:04;;;;;;;6.15;5.32;;;0.00;99.90;;;;;;5017023;28;20049;-79
2022/04/03 04:50:31;;;;;;;6.45;5.82;;;0.00;99.90;;;;;;5028183;28;20041;-81
2022/04/03 04:52:57;;;;;;;8.10;5.13;;;0.00;99.90;;;;;;5000601;28;20045;-80
2022/04/03 04:55:25;;;;;;;6.28;5.70;;;-0.10;99.90;;;;;;5016489;28;20029;-80
2022/04/03 04:57:56;;;;;;;6.15;5.20;;;-0.20;99.90;;;;;;5031142;28;20029;-78
2022/04/03 05:00:25;;;;;;;8.07;5.85;;;-0.20;99.90;;;;;;5032528;28;20450;-79
2022/04/03 05:02:51;;;;;;;7.63;5.78;;;-0.20;99.90;;;;;;5015659;28;20045;-79
2022/04/03 05:05:20;;;;;;;6.97;6.15;;;-0.30;99.90;;;;;;5036199;28;20026;-80
2022/04/03 05:07:49;;;;;;;9.40;6.07;;;-0.30;99.90;;;;;;5032806;28;20438;-79
2022/04/03 05:10:17;;;;;;;13.30;6.43;;;-0.40;99.90;;;;;;5027309;28;20041;-79
2022/04/03 05:12:44;;;;;;;6.68;6.07;;;-0.40;99.90;;;;;;5037087;28;20092;-78
2022/04/03 05:15:11;;;;;;;6.65;5.43;;;-0.40;99.90;;;;;;5039037;28;20044;-79
2022/04/03 05:17:47;;;;;;;5.80;5.20;;;-0.40;99.90;;;;;;5014336;28;20059;-79
2022/04/03 05:20:14;;;;;;;7.05;6.32;;;-0.50;99.90;;;;;;5030456;28;20040;-79
2022/04/03 05:22:42;;;;;;;5.75;5.15;;;-0.50;99.90;;;;;;5040917;28;20033;-80
2022/04/03 05:25:11;;;;;;;6.93;6.15;;;-0.50;99.90;;;;;;5030321;28;20037;-80
2022/04/03 05:27:39;;;;;;;10.10;4.97;;;-0.50;99.90;;;;;;4999569;28;20053;-80
2022/04/03 05:30:05;;;;;;;8.23;5.85;;;-0.50;99.90;;;;;;5029753;28;20033;-80
2022/04/03 05:32:32;;;;;;;9.27;6.88;;;-0.40;99.90;;;;;;5015411;28;20029;-80
2022/04/03 05:34:59;;;;;;;6.50;5.38;;;-0.30;99.90;;;;;;5033191;28;20470;-80
2022/04/03 05:37:26;;;;;;;7.50;6.03;;;-0.30;99.90;;;;;;5032217;28;20034;-81
2022/04/03 05:39:53;;;;;;;7.60;6.10;;;-0.20;99.90;;;;;;5009882;28;20029;-81
2022/04/03 05:42:20;;;;;;;7.38;5.57;;;-0.20;99.90;;;;;;5018110;28;20049;-79
2022/04/03 05:44:47;;;;;;;6.43;5.82;;;0.00;99.90;;;;;;5037351;28;20045;-80
2022/04/03 05:47:17;;;;;;;9.23;6.40;;;0.30;99.90;;;;;;5016700;28;20040;-80
2022/04/03 05:49:45;;;;;;;7.35;6.15;;;0.60;99.90;;;;;;5031116;28;20434;-80
2022/04/03 05:52:11;;;;;;;4.93;4.45;;;0.80;99.90;;;;;;5015202;28;20064;-79
2022/04/03 05:54:37;;;;;;;6.30;5.60;;;1.00;99.90;;;;;;5027515;28;20048;-81
2022/04/03 05:57:04;;;;;;;7.65;5.47;;;1.20;99.90;;;;;;5031664;28;20029;-83
2022/04/03 05:59:30;;;;;;;8.15;6.22;;;1.50;99.90;;;;;;5022926;28;20088;-86
2022/04/03 06:01:57;;;;;;;5.38;4.78;;;1.50;99.80;;;;;;5011143;28;20045;-81
2022/04/03 06:04:23;;;;;;;6.57;5.65;;;1.80;99.70;;;;;;5010154;28;20060;-82
2022/04/03 06:06:49;;;;;;;6.60;5.35;;;2.20;98.40;;;;;;5031392;28;20052;-80
2022/04/03 06:09:16;;;;;;;6.03;5.50;;;2.50;96.90;;;;;;5014668;28;20033;-78
2022/04/03 06:11:42;;;;;;;5.40;4.90;;;2.60;96.50;;;;;;5029586;28;20025;-82
2022/04/03 06:14:08;;;;;;;8.00;4.55;;;3.00;95.30;;;;;;5010828;28;20052;-82
2022/04/03 06:16:34;;;;;;;7.18;5.28;;;3.10;94.50;;;;;;5012409;28;20082;-82
2022/04/03 06:19:00;;;;;;;4.88;4.38;;;3.40;93.60;;;;;;5023607;28;20036;-78
2022/04/03 06:21:27;;;;;;;5.60;4.32;;;2.90;93.70;;;;;;5014558;28;20486;-78
2022/04/03 06:23:53;;;;;;;5.93;4.70;;;2.90;93.80;;;;;;5034190;28;20091;-78
2022/04/03 06:26:19;;;;;;;7.07;5.03;;;2.90;94.30;;;;;;5031600;28;20498;-84
2022/04/03 06:28:45;;;;;;;5.55;5.05;;;3.20;93.70;;;;;;5029532;28;20025;-78
2022/04/03 06:31:11;;;;;;;5.00;4.60;;;3.80;92.60;;;;;;5030980;28;20087;-81
2022/04/03 06:33:37;;;;;;;4.32;3.92;;;3.50;92.40;;;;;;5031973;28;20037;-77
2022/04/03 06:36:06;;;;;;;7.22;4.47;;;3.50;92.00;;;;;;5032416;28;20026;-76
2022/04/03 06:38:32;;;;;;;4.70;4.22;;;3.50;92.00;;;;;;5031430;28;20393;-78
2022/04/03 06:40:59;;;;;;;7.60;4.25;;;3.60;91.90;;;;;;5028726;28;20025;-77
2022/04/03 06:43:28;;;;;;;4.75;4.25;;;3.80;91.50;;;;;;5027097;28;20061;-80
2022/04/03 06:45:55;;;;;;;5.80;5.30;;;3.90;91.40;;;;;;5028373;28;20530;-78
2022/04/03 06:48:22;;;;;;;4.20;3.50;;;4.20;90.90;;;;;;5026579;28;20428;-78
2022/04/03 06:50:49;;;;;;;4.68;4.20;;;4.00;90.60;;;;;;5012660;28;20033;-80
2022/04/03 06:53:15;;;;;;;7.88;4.65;;;4.10;90.70;;;;;;5031440;28;20037;-78
2022/04/03 06:55:42;;;;;;;9.45;4.38;;;4.00;90.50;;;;;;5029860;28;20034;-86
2022/04/03 06:58:08;;;;;;;4.93;4.22;;;4.20;90.50;;;;;;5026390;28;20033;-81
2022/04/03 07:00:37;;;;;;;4.53;3.50;;;4.40;89.60;;;;;;5029720;28;20474;-79
2022/04/03 07:03:04;;;;;;;4.10;3.80;;;4.60;88.50;;;;;;5025101;28;20025;-81
2022/04/03 07:05:30;;;;;;;7.63;4.18;;;4.00;90.20;;;;;;5026380;28;20061;-80
2022/04/03 07:07:57;;;;;;;4.60;4.13;;;3.90;90.00;;;;;;5032186;28;20382;-82
2022/04/03 07:10:24;;;;;;;4.78;3.90;;;4.30;89.60;;;;;;5031405;28;20044;-81
2022/04/03 07:12:50;;;;;;;6.50;4.78;;;4.60;87.30;;;;;;5025095;28;20034;-79
2022/04/03 07:15:17;;;;;;;5.20;3.92;;;4.20;87.70;;;;;;5013501;28;20049;-77
2022/04/03 07:17:43;;;;;;;5.50;4.00;;;4.00;88.80;;;;;;5030855;28;20044;-77
2022/04/03 07:20:14;;;;;;;3.38;3.10;;;4.60;87.10;;;;;;5028204;28;20029;-76
2022/04/03 07:22:42;;;;;;;3.78;3.47;;;4.50;85.80;;;;;;5030835;28;20596;-77
2022/04/03 07:25:12;;;;;;;4.13;3.20;;;4.50;84.30;;;;;;5026159;28;20511;-78
2022/04/03 07:27:40;;;;;;;3.85;3.13;;;4.30;85.70;;;;;;5012043;28;20049;-79
2022/04/03 07:30:08;;;;;;;4.72;3.75;;;4.10;85.70;;;;;;5029119;28;20029;-79
2022/04/03 07:32:36;;;;;;;4.15;3.75;;;4.40;85.40;;;;;;5030995;28;20038;-78
2022/04/03 07:35:03;;;;;;;5.15;4.75;;;4.50;83.10;;;;;;5016635;28;20033;-79
2022/04/03 07:37:30;;;;;;;4.68;3.45;;;4.70;83.40;;;;;;5000654;28;20040;-79
2022/04/03 07:39:57;;;;;;;3.88;3.30;;;4.40;83.60;;;;;;5032527;28;20053;-79
2022/04/03 07:42:23;;;;;;;5.65;3.25;;;4.40;84.30;;;;;;5032412;28;20025;-78
2022/04/03 07:44:49;;;;;;;3.10;2.80;;;4.60;82.20;;;;;;5034183;28;20033;-76
2022/04/03 07:47:16;;;;;;;4.28;3.28;;;4.60;82.40;;;;;;5016803;28;20413;-74
2022/04/03 07:49:42;;;;;;;4.30;3.90;;;5.00;79.90;;;;;;5031713;28;20217;-75
2022/04/03 07:52:08;;;;;;;3.67;3.38;;;5.20;79.70;;;;;;5033466;28;20485;-76
2022/04/03 07:54:35;;;;;;;4.28;3.97;;;5.00;80.10;;;;;;5033796;28;20402;-75
2022/04/03 07:57:01;;;;;;;3.83;3.53;;;4.50;82.20;;;;;;5030273;28;20029;-76
2022/04/03 07:59:27;;;;;;;3.47;3.17;;;4.60;82.00;;;;;;5030208;28;20379;-82
2022/04/03 08:01:53;;;;;;;4.03;3.72;;;4.70;82.30;;;;;;5029691;28;20037;-82
2022/04/03 08:04:20;;;;;;;4.10;3.70;;;4.60;82.10;;;;;;5025408;28;20042;-82
2022/04/03 08:06:46;;;;;;;4.57;4.13;;;4.70;82.50;;;;;;5016622;28;20052;-82
2022/04/03 08:09:13;;;;;;;5.22;3.63;;;5.00;81.80;;;;;;5028330;28;20032;-82
2022/04/03 08:11:42;;;;;;;3.80;3.50;;;5.60;78.10;;;;;;5028241;28;20030;-81
2022/04/03 08:14:09;;;;;;;3.33;2.83;;;5.60;77.10;;;;;;5031494;28;20394;-83
2022/04/03 08:16:35;;;;;;;14.60;4.45;;;5.60;77.40;;;;;;5000614;28;20042;-82
2022/04/03 08:19:03;;;;;;;3.55;3.25;;;5.20;77.90;;;;;;5016658;28;20026;-78
2022/04/03 08:21:32;;;;;;;4.32;3.55;;;5.20;77.50;;;;;;5027649;28;20037;-82
2022/04/03 08:23:59;;;;;;;3.58;3.20;;;5.70;75.60;;;;;;4999973;28;20093;-83
2022/04/03 08:26:26;;;;;;;4.25;2.58;;;5.80;75.30;;;;;;5034004;28;20073;-82
2022/04/03 08:28:53;;;;;;;3.33;2.88;;;5.60;73.60;;;;;;5035379;28;20025;-83
2022/04/03 08:31:23;;;;;;;12.77;3.13;;;6.00;74.00;;;;;;5014409;28;20060;-82
2022/04/03 08:33:52;;;;;;;2.88;2.58;;;6.90;69.50;;;;;;5033883;28;20056;-82
2022/04/03 08:36:19;;;;;;;5.53;3.33;;;7.80;66.30;;;;;;5033721;28;20462;-82
2022/04/03 08:38:46;;;;;;;3.00;2.75;;;7.50;69.00;;;;;;5015238;28;20050;-83
2022/04/03 08:41:12;;;;;;;4.57;2.95;;;7.10;68.90;;;;;;5031455;28;20493;-83
2022/04/03 08:43:42;;;;;;;3.55;2.90;;;6.20;70.40;;;;;;5028236;28;20061;-83
2022/04/03 08:46:09;;;;;;;3.53;3.22;;;5.60;75.20;;;;;;5032297;28;20037;-82
2022/04/03 08:48:41;;;;;;;3.33;2.97;;;5.70;75.30;;;;;;5030271;28;20029;-83
2022/04/03 08:51:08;;;;;;;6.68;3.85;;;5.00;76.60;;;;;;5007832;28;20041;-83
2022/04/03 08:53:38;;;;;;;3.80;3.50;;;4.30;79.90;;;;;;5032179;28;20422;-83
2022/04/03 08:56:05;;;;;;;4.68;3.80;;;4.00;82.40;;;;;;5027963;28;20048;-85
2022/04/03 08:58:32;;;;;;;4.25;3.95;;;4.00;82.70;;;;;;5033448;28;20033;-84
2022/04/03 09:01:01;;;;;;;3.83;3.33;;;3.80;84.00;;;;;;5032616;28;20037;-83
2022/04/03 09:03:27;;;;;;;3.95;3.55;;;3.80;84.60;;;;;;5033333;28;20040;-82
2022/04/03 09:06:19;;;;;;;6.32;4.07;;;3.80;85.00;;;;;;5039407;28;20026;-83
2022/04/03 09:08:47;;;;;;;5.50;4.22;;;4.10;84.30;;;;;;5010166;28;20398;-83
2022/04/03 09:11:13;;;;;;;3.85;3.45;;;4.10;82.60;;;;;;5032660;28;20088;-84
2022/04/03 09:13:40;;;;;;;3.45;3.03;;;4.20;82.90;;;;;;4996248;28;20041;-82
2022/04/03 09:16:08;;;;;;;6.10;3.42;;;4.10;82.10;;;;;;5009390;28;20037;-82
2022/04/03 09:18:45;;;;;;;3.90;3.15;;;4.10;82.80;;;;;;5010008;28;20037;-82
2022/04/03 09:21:22;;;;;;;4.30;3.25;;;4.20;82.40;;;;;;5022688;28;20045;-83
2022/04/03 09:24:08;;;;;;;4.10;2.78;;;4.30;80.30;;;;;;5015194;28;20057;-83
2022/04/03 09:26:35;;;;;;;8.27;3.40;;;4.40;79.00;;;;;;5033149;28;20057;-83
2022/04/03 09:29:08;;;;;;;2.65;1.95;;;4.30;77.10;;;;;;5014445;28;20056;-81
2022/04/03 09:31:34;;;;;;;3.05;2.13;;;4.30;67.50;;;;;;5012008;28;20029;-83
2022/04/03 09:34:02;;;;;;;3.67;2.38;;;4.20;66.30;;;;;;5028208;28;20037;-82
2022/04/03 09:36:33;;;;;;;2.30;2.10;;;4.30;66.20;;;;;;4991242;28;20497;-82
2022/04/03 09:39:16;;;;;;;2.25;2.05;;;4.30;66.50;;;;;;5014997;28;20494;-83
2022/04/03 09:42:02;;;;;;;3.33;2.05;;;4.30;65.50;;;;;;5032907;28;20041;-82
2022/04/03 09:44:36;;;;;;;4.90;3.42;;;4.40;65.60;;;;;;5017593;28;20053;-81
2022/04/03 09:47:13;;;;;;;4.18;2.60;;;4.40;65.30;;;;;;4999086;28;20042;-84
2022/04/03 09:49:40;;;;;;;3.75;2.72;;;4.30;64.80;;;;;;5027978;28;20038;-81
2022/04/03 09:52:07;;;;;;;2.33;2.10;;;4.30;66.40;;;;;;5028196;28;20048;-83
2022/04/03 09:54:33;;;;;;;2.50;1.80;;;4.40;65.80;;;;;;4998461;28;20045;-82
2022/04/03 09:57:19;;;;;;;3.10;2.03;;;4.30;64.90;;;;;;5031856;28;20426;-82
2022/04/03 09:59:51;;;;;;;2.33;2.10;;;4.30;65.70;;;;;;5013585;28;20050;-81
2022/04/03 10:02:17;;;;;;;3.22;1.85;;;4.40;63.00;;;;;;5014686;28;20045;-80
2022/04/03 10:04:44;;;;;;;2.25;1.88;;;4.40;61.10;;;;;;5013503;28;20217;-79
2022/04/03 10:07:14;;;;;;;2.80;1.90;;;4.60;61.20;;;;;;5013963;28;20386;-78
2022/04/03 10:09:46;;;;;;;4.88;2.00;;;5.00;61.30;;;;;;5027776;28;20022;-81
2022/04/03 10:12:20;;;;;;;4.20;2.33;;;5.10;60.10;;;;;;5028781;28;20466;-77
2022/04/03 10:14:51;;;;;;;1.88;1.77;;;5.20;59.30;;;;;;5027564;28;20048;-78
2022/04/03 10:17:19;;;;;;;2.28;2.03;;;5.30;58.80;;;;;;5006578;28;20057;-77
2022/04/03 10:19:45;;;;;;;2.58;1.77;;;5.10;59.40;;;;;;5004601;28;20038;-78
2022/04/03 10:22:26;;;;;;;3.88;2.35;;;5.30;58.00;;;;;;5031505;28;20029;-77
2022/04/03 10:24:58;;;;;;;4.47;3.13;;;5.10;57.40;;;;;;5014408;28;20048;-78
2022/04/03 10:27:29;;;;;;;3.67;2.05;;;5.00;56.60;;;;;;5028794;28;20045;-78
2022/04/03 10:29:58;;;;;;;5.53;4.95;;;5.10;54.90;;;;;;5030728;28;20103;-77
2022/04/03 10:32:27;;;;;;;4.25;3.85;;;5.40;56.50;;;;;;5028907;28;20036;-77
2022/04/03 10:34:57;;;;;;;4.57;2.40;;;5.80;55.80;;;;;;5032007;28;20037;-77
2022/04/03 10:37:26;;;;;;;1.83;1.60;;;5.60;55.60;;;;;;5031666;28;20034;-78
2022/04/03 10:39:54;;;;;;;2.95;1.70;;;5.80;55.00;;;;;;5010656;28;20448;-77
2022/04/03 10:42:28;;;;;;;2.15;1.73;;;5.70;55.20;;;;;;5027230;28;20041;-80
2022/04/03 10:45:12;;;;;;;2.95;1.40;;;5.50;54.40;;;;;;5031328;28;20025;-78
2022/04/03 10:47:42;;;;;;;4.57;1.52;;;5.30;52.80;;;;;;5029561;28;20029;-78
2022/04/03 10:50:21;;;;;;;1.55;1.10;;;5.00;51.30;;;;;;5026569;28;20029;-83
2022/04/03 10:52:55;;;;;;;2.88;1.30;;;5.10;53.00;;;;;;5028586;28;20033;-82
2022/04/03 10:55:28;;;;;;;3.00;1.42;;;4.90;50.70;;;;;;5025308;28;20060;-79
2022/04/03 10:58:06;;;;;;;4.22;1.48;;;4.70;50.60;;;;;;5023750;28;20033;-82
2022/04/03 11:00:38;;;;;;;1.85;1.20;;;4.60;50.00;;;;;;5024530;28;20714;-82
2022/04/03 11:03:27;;;;;;;1.35;1.15;;;4.80;50.80;;;;;;5007162;28;20048;-83
2022/04/03 11:05:54;;;;;;;2.45;1.50;;;5.10;51.30;;;;;;5028327;28;20041;-84
2022/04/03 11:08:44;;;;;;;2.60;1.60;;;5.30;52.30;;;;;;5024216;28;20029;-85
2022/04/03 11:11:10;;;;;;;1.73;1.30;;;5.30;52.60;;;;;;5033420;28;20041;-82
2022/04/03 11:13:40;;;;;;;4.18;1.73;;;5.20;52.70;;;;;;5035354;28;20025;-84
2022/04/03 11:16:11;;;;;;;2.83;1.67;;;5.30;52.90;;;;;;5035196;28;20049;-85
2022/04/03 11:18:45;;;;;;;2.70;1.65;;;5.50;52.30;;;;;;5035424;28;20061;-81
2022/04/03 11:21:28;;;;;;;2.22;1.85;;;5.60;51.50;;;;;;5034845;28;20036;-85
2022/04/03 11:24:15;;;;;;;1.60;1.17;;;5.40;50.30;;;;;;5035597;28;20029;-86
2022/04/03 11:26:43;;;;;;;1.23;1.10;;;5.20;48.40;;;;;;5016618;28;20060;-85
2022/04/03 11:29:10;;;;;;;2.15;1.95;;;5.30;49.50;;;;;;5034273;28;20025;-84
2022/04/03 11:31:40;;;;;;;2.13;1.63;;;5.40;47.60;;;;;;5038510;28;20056;-85
2022/04/03 11:34:07;;;;;;;2.50;1.58;;;5.20;47.40;;;;;;5031100;28;20471;-83
2022/04/03 11:36:34;;;;;;;3.05;1.55;;;4.90;47.20;;;;;;5033877;28;20033;-83
2022/04/03 11:39:05;;;;;;;2.88;2.53;;;4.90;47.70;;;;;;5033753;28;20392;-83
2022/04/03 11:41:35;;;;;;;1.58;1.42;;;5.50;48.60;;;;;;5035069;28;20033;-83
2022/04/03 11:44:08;;;;;;;1.70;1.37;;;5.60;47.40;;;;;;5034952;28;20506;-83
2022/04/03 11:46:43;;;;;;;3.45;3.10;;;6.00;47.30;;;;;;5029082;28;20467;-83
2022/04/03 11:49:14;;;;;;;2.30;1.25;;;6.60;47.70;;;;;;5029901;28;20521;-82
2022/04/03 11:51:42;;;;;;;3.00;1.20;;;6.70;46.00;;;;;;5015852;28;20495;-84
2022/04/03 11:54:09;;;;;;;1.77;1.40;;;6.40;45.00;;;;;;5018505;28;20034;-82
2022/04/03 11:56:37;;;;;;;1.20;0.90;;;6.20;45.60;;;;;;5031965;28;20399;-83
2022/04/03 11:59:07;;;;;;;1.77;1.48;;;6.20;45.10;;;;;;5032942;28;20034;-82
2022/04/03 12:01:35;;;;;;;2.20;1.25;;;6.50;45.30;;;;;;5033764;28;20042;-84
2022/04/03 12:04:10;;;;;;;1.80;1.20;;;6.60;44.80;;;;;;5035830;28;20048;-83
2022/04/03 12:06:38;;;;;;;0.95;0.88;;;6.70;44.10;;;;;;5029014;28;20033;-84
2022/04/03 12:09:10;;;;;;;1.02;0.82;;;6.50;44.40;;;;;;5027698;28;20808;-83
2022/04/03 12:11:38;;;;;;;1.95;1.20;;;6.30;43.90;;;;;;5032495;28;20048;-85
2022/04/03 12:14:06;;;;;;;2.10;0.95;;;6.20;44.10;;;;;;5035688;28;20033;-84
2022/04/03 12:16:40;;;;;;;1.35;1.00;;;5.80;43.90;;;;;;5019016;28;20044;-80
2022/04/03 12:19:08;;;;;;;1.92;1.50;;;5.70;44.70;;;;;;5013072;28;20056;-82
2022/04/03 12:21:54;;;;;;;5.15;1.70;;;5.80;44.50;;;;;;5032687;28;20040;-83
2022/04/03 12:24:26;;;;;;;1.85;1.50;;;6.40;46.30;;;;;;5032385;28;20056;-82
2022/04/03 12:27:00;;;;;;;2.80;2.38;;;7.10;44.90;;;;;;5034082;28;20045;-83
2022/04/03 12:29:28;;;;;;;4.45;1.55;;;7.50;43.60;;;;;;5030855;28;20040;-83
2022/04/03 12:32:06;;;;;;;1.40;0.98;;;7.40;42.00;;;;;;5034870;28;20463;-82
2022/04/03 12:34:43;;;;;;;1.67;0.90;;;6.90;42.60;;;;;;5034426;28;20030;-82
2022/04/03 12:37:12;;;;;;;1.77;1.13;;;6.70;43.00;;;;;;5033923;28;20048;-86
2022/04/03 12:39:41;;;;;;;1.73;1.10;;;6.90;44.50;;;;;;5031942;28;20042;-88
2022/04/03 12:42:32;;;;;;;2.08;1.20;;;6.90;42.10;;;;;;5017928;28;20041;-84
2022/04/03 12:45:05;;;;;;;1.33;1.10;;;6.60;42.40;;;;;;5034924;28;20033;-84
2022/04/03 12:47:42;;;;;;;0.82;0.80;;;6.50;43.90;;;;;;5033627;28;20295;-83
2022/04/03 12:50:14;;;;;;;1.13;1.00;;;6.80;43.00;;;;;;5033731;28;20029;-84
2022/04/03 12:52:52;;;;;;;1.83;0.82;;;6.70;42.60;;;;;;5043532;28;20041;-82
2022/04/03 12:55:24;;;;;;;2.35;1.33;;;6.80;42.80;;;;;;5016281;28;20044;-87
2022/04/03 13:00:46;;;;;;;3.10;1.27;;;6.80;43.40;;;;;;5048386;28;20034;-84
2022/04/03 13:03:37;;;;;;;1.00;0.90;;;6.80;43.30;;;;;;5049138;28;20029;-87
2022/04/03 13:06:07;;;;;;;2.00;1.40;;;6.90;44.60;;;;;;5044216;28;20041;-89